createdAt,value
2018-01-24T00:02:18.255Z,97089.24
2018-01-24T00:04:45.862Z,97083.91
2018-01-24T00:07:13.797Z,97087.60
2018-01-24T00:09:41.376Z,97082.44
2018-01-24T00:12:08.947Z,97092.34
2018-01-24T00:14:36.512Z,97082.23
2018-01-24T00:17:04.265Z,97082.23
2018-01-24T00:19:31.850Z,97083.12
2018-01-24T00:21:59.391Z,97085.66
2018-01-24T00:24:26.973Z,97086.12
2018-01-24T00:26:54.522Z,97083.97
2018-01-24T00:29:22.453Z,97086.18
2018-01-24T00:31:50.374Z,97082.48
2018-01-24T00:34:17.951Z,97084.50
2018-01-24T00:36:45.490Z,97087.81
2018-01-24T00:39:13.263Z,97089.72
2018-01-24T00:41:40.831Z,97094.56
2018-01-24T00:44:08.413Z,97096.35
2018-01-24T00:46:35.969Z,97084.77
2018-01-24T00:49:03.694Z,97091.30
2018-01-24T00:51:31.286Z,97091.18
2018-01-24T00:53:58.860Z,97098.67
2018-01-24T00:56:26.466Z,97110.52
2018-01-24T00:58:54.029Z,97110.67
2018-01-24T01:01:21.613Z,97108.09
2018-01-24T01:03:49.224Z,97113.30
2018-01-24T01:06:16.834Z,97109.45
2018-01-24T01:08:44.394Z,97110.67
2018-01-24T01:11:13.161Z,97117.53
2018-01-24T01:13:40.733Z,97106.05
2018-01-24T01:16:09.001Z,97095.77
2018-01-24T01:18:36.631Z,97107.06
2018-01-24T01:21:04.182Z,97097.04
2018-01-24T01:23:32.574Z,97096.45
2018-01-24T01:26:00.146Z,97098.14
2018-01-24T01:28:27.725Z,97099.52
2018-01-24T01:30:55.322Z,97095.14
2018-01-24T01:33:23.060Z,97096.30
2018-01-24T01:35:50.641Z,97095.83
2018-01-24T01:38:18.193Z,97080.20
2018-01-24T01:40:45.763Z,97091.92
2018-01-24T01:43:13.930Z,97077.22
2018-01-24T01:45:41.567Z,97085.77
2018-01-24T01:48:09.157Z,97076.28
2018-01-24T01:50:36.750Z,97088.28
2018-01-24T01:53:04.409Z,97090.92
2018-01-24T01:55:31.989Z,97089.71
2018-01-24T01:57:59.533Z,97090.59
2018-01-24T02:00:27.171Z,97088.28
2018-01-24T02:02:54.751Z,97095.45
2018-01-24T02:05:22.371Z,97091.19
2018-01-24T02:07:50.247Z,97096.87
2018-01-24T02:10:17.808Z,97081.59
2018-01-24T02:12:45.400Z,97080.11
2018-01-24T02:15:13.971Z,97075.00
2018-01-24T02:17:41.531Z,97068.20
2018-01-24T02:20:09.176Z,97080.44
2018-01-24T02:22:36.792Z,97077.27
2018-01-24T02:25:04.395Z,97080.64
2018-01-24T02:27:31.971Z,97075.38
2018-01-24T02:29:59.609Z,97079.59
2018-01-24T02:32:27.197Z,97080.64
2018-01-24T02:34:54.750Z,97070.68
2018-01-24T02:37:22.545Z,97065.58
2018-01-24T02:39:50.201Z,97071.06
2018-01-24T02:42:17.757Z,97070.22
2018-01-24T02:44:45.370Z,97064.95
2018-01-24T02:47:13.498Z,97061.98
2018-01-24T02:49:41.057Z,97058.41
2018-01-24T02:52:08.689Z,97071.33
2018-01-24T02:54:36.236Z,97057.66
2018-01-24T02:57:03.822Z,97068.73
2018-01-24T02:59:31.440Z,97072.44
2018-01-24T03:02:00.341Z,97063.83
2018-01-24T03:04:28.945Z,97070.64
2018-01-24T03:06:56.502Z,97076.38
2018-01-24T03:09:25.649Z,97069.36
2018-01-24T03:11:53.254Z,97074.20
2018-01-24T03:14:21.244Z,97067.63
2018-01-24T03:16:49.178Z,97072.37
2018-01-24T03:19:17.155Z,97062.58
2018-01-24T03:21:44.793Z,97056.36
2018-01-24T03:24:12.358Z,97052.66
2018-01-24T03:26:39.922Z,97054.20
2018-01-24T03:29:08.322Z,97054.88
2018-01-24T03:31:35.902Z,97052.09
2018-01-24T03:34:03.461Z,97042.30
2018-01-24T03:36:31.106Z,97047.40
2018-01-24T03:39:00.363Z,97047.94
2018-01-24T03:41:28.616Z,97048.66
2018-01-24T03:43:56.194Z,97044.03
2018-01-24T03:46:23.897Z,97030.36
2018-01-24T03:48:51.496Z,97042.69
2018-01-24T03:51:19.076Z,97031.38
2018-01-24T03:53:46.661Z,97029.37
2018-01-24T03:56:14.223Z,97029.69
2018-01-24T03:58:45.259Z,97036.53
2018-01-24T04:01:13.022Z,97036.23
2018-01-24T04:03:40.631Z,97035.23
2018-01-24T04:06:08.226Z,97036.70
2018-01-24T04:08:35.931Z,97038.48
2018-01-24T04:11:03.553Z,97035.69
2018-01-24T04:13:31.124Z,97037.96
2018-01-24T04:15:58.713Z,97024.38
2018-01-24T04:18:26.304Z,97029.52
2018-01-24T04:20:53.849Z,97033.22
2018-01-24T04:23:21.667Z,97036.73
2018-01-24T04:25:49.332Z,97029.78
2018-01-24T04:28:16.924Z,97032.33
2018-01-24T04:30:44.532Z,97023.28
2018-01-24T04:33:12.558Z,97031.62
2018-01-24T04:35:40.150Z,97027.27
2018-01-24T04:38:07.736Z,97038.80
2018-01-24T04:40:35.304Z,97034.92
2018-01-24T04:43:02.895Z,97029.90
2018-01-24T04:45:30.507Z,97032.72
2018-01-24T04:47:58.105Z,97035.02
2018-01-24T04:50:25.696Z,97040.70
2018-01-24T04:52:53.293Z,97033.08
2018-01-24T04:55:21.975Z,97038.61
2018-01-24T04:57:49.600Z,97038.50
2018-01-24T05:00:17.167Z,97024.84
2018-01-24T05:05:35.875Z,97020.19
2018-01-24T05:08:03.453Z,97029.06
2018-01-24T05:10:31.798Z,97029.37
2018-01-24T05:12:59.406Z,97033.12
2018-01-24T05:15:27.351Z,97031.84
2018-01-24T05:17:55.009Z,97022.20
2018-01-24T05:20:32.561Z,97028.71
2018-01-24T05:23:00.182Z,97032.50
2018-01-24T05:25:27.839Z,97025.23
2018-01-24T05:27:55.606Z,97040.96
2018-01-24T05:30:23.188Z,97045.25
2018-01-24T05:32:50.753Z,97039.88
2018-01-24T05:35:18.607Z,97042.88
2018-01-24T05:37:46.239Z,97042.63
2018-01-24T05:40:14.085Z,97035.60
2018-01-24T05:42:41.712Z,97040.38
2018-01-24T05:45:11.723Z,97042.28
2018-01-24T05:47:39.289Z,97038.87
2018-01-24T05:50:06.914Z,97029.56
2018-01-24T05:52:34.526Z,97025.20
2018-01-24T05:55:02.896Z,97020.99
2018-01-24T05:57:30.794Z,97018.28
2018-01-24T05:59:58.447Z,97010.89
2018-01-24T06:02:26.006Z,97006.08
2018-01-24T06:04:53.585Z,97011.77
2018-01-24T06:07:22.140Z,97021.73
2018-01-24T06:09:49.723Z,97019.00
2018-01-24T06:12:17.282Z,97009.95
2018-01-24T06:14:44.900Z,97018.96
2018-01-24T06:17:12.546Z,97004.09
2018-01-24T06:19:40.090Z,97008.56
2018-01-24T06:22:07.692Z,97005.22
2018-01-24T06:24:35.486Z,97000.19
2018-01-24T06:27:04.186Z,96997.28
2018-01-24T06:29:33.153Z,97005.56
2018-01-24T06:32:01.578Z,97004.83
2018-01-24T06:34:29.206Z,97016.51
2018-01-24T06:39:30.482Z,97025.73
2018-01-24T06:41:58.085Z,97031.21
2018-01-24T06:44:25.655Z,97027.02
2018-01-24T06:46:53.240Z,97032.23
2018-01-24T06:49:20.923Z,97026.34
2018-01-24T06:51:48.641Z,97024.41
2018-01-24T06:57:07.202Z,97023.70
2018-01-24T06:59:34.856Z,97033.45
2018-01-24T07:02:02.419Z,97029.90
2018-01-24T07:04:30.002Z,97030.45
2018-01-24T07:07:00.572Z,97031.34
2018-01-24T07:09:28.920Z,97035.45
2018-01-24T07:12:10.088Z,97031.48
2018-01-24T07:14:46.489Z,97026.42
2018-01-24T07:17:18.357Z,97022.53
2018-01-24T07:19:49.046Z,97033.28
2018-01-24T07:22:16.669Z,97029.88
2018-01-24T07:24:44.217Z,97029.67
2018-01-24T07:27:12.264Z,97028.84
2018-01-24T07:29:39.873Z,97025.29
2018-01-24T07:32:07.401Z,97028.77
2018-01-24T07:34:34.970Z,97029.39
2018-01-24T07:37:02.570Z,97033.70
2018-01-24T07:39:30.339Z,97034.53
2018-01-24T07:41:58.146Z,97041.09
2018-01-24T07:44:25.745Z,97050.77
2018-01-24T07:46:53.286Z,97053.02
2018-01-24T07:49:23.445Z,97049.42
2018-01-24T07:51:51.070Z,97056.47
2018-01-24T07:54:21.285Z,97058.80
2018-01-24T07:56:48.853Z,97057.09
2018-01-24T07:59:19.168Z,97069.23
2018-01-24T08:01:46.750Z,97069.81
2018-01-24T08:04:14.329Z,97063.08
2018-01-24T08:06:41.923Z,97073.84
2018-01-24T08:09:11.131Z,97066.52
2018-01-24T08:11:38.702Z,97080.05
2018-01-24T08:14:06.245Z,97081.98
2018-01-24T08:16:33.788Z,97091.70
2018-01-24T08:19:01.446Z,97092.31
2018-01-24T08:21:29.722Z,97091.16
2018-01-24T08:23:57.274Z,97089.83
2018-01-24T08:26:24.865Z,97083.20
2018-01-24T08:28:52.401Z,97087.13
2018-01-24T08:31:20.088Z,97084.88
2018-01-24T08:33:47.670Z,97092.18
2018-01-24T08:36:15.333Z,97094.16
2018-01-24T08:38:42.885Z,97097.33
2018-01-24T08:41:11.533Z,97097.77
2018-01-24T08:43:39.090Z,97100.81
2018-01-24T08:46:06.621Z,97103.80
2018-01-24T08:48:34.205Z,97098.78
2018-01-24T08:51:01.770Z,97092.89
2018-01-24T08:53:29.351Z,97093.93
2018-01-24T08:55:56.882Z,97094.47
2018-01-24T08:58:24.427Z,97087.27
2018-01-24T09:00:52.009Z,97090.11
2018-01-24T09:03:19.551Z,97091.95
2018-01-24T09:05:47.490Z,97090.47
2018-01-24T09:08:15.057Z,97094.19
2018-01-24T09:10:42.611Z,97095.95
2018-01-24T09:13:10.630Z,97094.17
2018-01-24T09:15:38.245Z,97096.73
2018-01-24T09:18:06.218Z,97094.95
2018-01-24T09:20:33.760Z,97096.50
2018-01-24T09:23:01.412Z,97095.20
2018-01-24T09:25:28.990Z,97094.32
2018-01-24T09:27:56.601Z,97104.31
2018-01-24T09:30:24.580Z,97101.34
2018-01-24T09:32:52.140Z,97103.11
2018-01-24T09:35:21.418Z,97102.33
2018-01-24T09:37:49.036Z,97103.09
2018-01-24T09:40:16.597Z,97107.23
2018-01-24T09:42:44.121Z,97104.03
2018-01-24T09:45:12.428Z,97106.41
2018-01-24T09:47:40.022Z,97093.61
2018-01-24T09:50:07.570Z,97094.02
2018-01-24T09:52:35.147Z,97092.66
2018-01-24T09:55:02.734Z,97092.75
2018-01-24T09:57:30.285Z,97088.89
2018-01-24T09:59:57.883Z,97092.66
2018-01-24T10:02:25.916Z,97086.13
2018-01-24T10:04:53.483Z,97092.30
2018-01-24T10:07:21.086Z,97091.21
2018-01-24T10:09:48.616Z,97093.98
2018-01-24T10:12:16.157Z,97082.24
2018-01-24T10:14:43.740Z,97079.05
2018-01-24T10:17:12.328Z,97081.18
2018-01-24T10:19:39.921Z,97082.59
2018-01-24T10:22:07.507Z,97086.45
2018-01-24T10:24:35.094Z,97082.80
2018-01-24T10:27:02.941Z,97080.77
2018-01-24T10:29:30.505Z,97075.61
2018-01-24T10:31:58.100Z,97076.80
2018-01-24T10:34:25.864Z,97079.70
2018-01-24T10:36:53.441Z,97081.86
2018-01-24T10:39:21.613Z,97086.86
2018-01-24T10:41:49.409Z,97075.52
2018-01-24T10:44:17.227Z,97074.78
2018-01-24T10:46:44.804Z,97069.53
2018-01-24T10:49:12.750Z,97065.83
2018-01-24T10:51:40.288Z,97069.67
2018-01-24T10:54:08.098Z,97067.71
2018-01-24T10:56:35.644Z,97062.00
2018-01-24T10:59:03.202Z,97060.13
2018-01-24T11:01:32.419Z,97060.64
2018-01-24T11:04:01.476Z,97062.35
2018-01-24T11:06:29.019Z,97055.00
2018-01-24T11:08:57.720Z,97054.30
2018-01-24T11:11:25.442Z,97052.67
2018-01-24T11:13:54.880Z,97048.95
2018-01-24T11:16:22.725Z,97049.09
2018-01-24T11:18:50.488Z,97040.12
2018-01-24T11:21:18.524Z,97045.67
2018-01-24T11:23:46.142Z,97045.70
2018-01-24T11:26:13.688Z,97039.98
2018-01-24T11:28:41.704Z,97038.29
2018-01-24T11:31:11.145Z,97038.63
2018-01-24T11:33:39.901Z,97033.95
2018-01-24T11:36:08.302Z,97029.13
2018-01-24T11:38:35.853Z,97019.35
2018-01-24T11:41:03.630Z,97013.17
2018-01-24T11:43:31.197Z,97012.99
2018-01-24T11:45:59.948Z,97014.86
2018-01-24T11:48:27.729Z,97012.08
2018-01-24T11:50:55.301Z,97006.28
2018-01-24T11:53:22.910Z,96997.56
2018-01-24T11:55:53.601Z,96995.19
2018-01-24T11:58:21.253Z,96984.85
2018-01-24T12:00:48.816Z,96978.45
2018-01-24T12:03:16.432Z,96974.51
2018-01-24T12:05:44.078Z,96969.70
2018-01-24T12:08:11.791Z,96983.25
2018-01-24T12:10:39.367Z,96977.56
2018-01-24T12:13:07.404Z,96972.50
2018-01-24T12:15:35.030Z,96957.59
2018-01-24T12:18:02.810Z,96953.92
2018-01-24T12:20:30.364Z,96958.84
2018-01-24T12:22:57.904Z,96952.41
2018-01-24T12:25:25.492Z,96939.68
2018-01-24T12:27:53.031Z,96932.66
2018-01-24T12:30:20.604Z,96926.06
2018-01-24T12:32:48.206Z,96924.89
2018-01-24T12:35:15.773Z,96917.16
2018-01-24T12:37:43.365Z,96916.01
2018-01-24T12:40:11.057Z,96919.30
2018-01-24T12:42:38.640Z,96906.92
2018-01-24T12:45:06.765Z,96886.86
2018-01-24T12:47:34.468Z,96899.97
2018-01-24T12:50:02.049Z,96899.25
2018-01-24T12:52:29.636Z,96893.48
2018-01-24T12:54:57.213Z,96897.27
2018-01-24T12:57:24.786Z,96895.08
2018-01-24T12:59:52.368Z,96892.95
2018-01-24T13:02:20.000Z,96888.53
2018-01-24T13:04:47.609Z,96888.19
2018-01-24T13:07:15.893Z,96880.56
2018-01-24T13:09:43.536Z,96883.19
2018-01-24T13:12:11.564Z,96883.05
2018-01-24T13:14:39.551Z,96888.00
2018-01-24T13:17:08.656Z,96894.11
2018-01-24T13:19:36.259Z,96883.80
2018-01-24T13:22:03.873Z,96882.22
2018-01-24T13:24:31.886Z,96875.23
2018-01-24T13:26:59.440Z,96865.98
2018-01-24T13:29:27.268Z,96856.13
2018-01-24T13:31:54.860Z,96852.52
2018-01-24T13:34:23.454Z,96843.42
2018-01-24T13:36:50.987Z,96846.69
2018-01-24T13:39:19.097Z,96852.94
2018-01-24T13:41:46.646Z,96846.02
2018-01-24T13:44:14.241Z,96840.02
2018-01-24T13:46:41.849Z,96826.69
2018-01-24T13:49:10.616Z,96820.65
2018-01-24T13:51:38.276Z,96824.28
2018-01-24T13:54:08.146Z,96809.98
2018-01-24T13:56:35.716Z,96813.64
2018-01-24T13:59:03.291Z,96815.02
2018-01-24T14:01:30.916Z,96813.77
2018-01-24T14:03:58.500Z,96816.23
2018-01-24T14:06:26.274Z,96811.94
2018-01-24T14:08:53.829Z,96821.78
2018-01-24T14:11:21.699Z,96820.38
2018-01-24T14:13:49.445Z,96820.20
2018-01-24T14:16:17.008Z,96822.77
2018-01-24T14:18:44.604Z,96823.67
2018-01-24T14:21:12.866Z,96818.62
2018-01-24T14:23:40.421Z,96820.04
2018-01-24T14:26:08.055Z,96824.78
2018-01-24T14:28:35.703Z,96828.42
2018-01-24T14:31:03.285Z,96830.52
2018-01-24T14:33:30.886Z,96831.91
2018-01-24T14:35:58.425Z,96829.39
2018-01-24T14:38:25.974Z,96829.61
2018-01-24T14:40:53.659Z,96836.41
2018-01-24T14:43:21.192Z,96841.47
2018-01-24T14:45:48.757Z,96843.48
2018-01-24T14:48:16.359Z,96849.16
2018-01-24T14:50:43.960Z,96847.16
2018-01-24T14:53:11.689Z,96845.48
2018-01-24T14:55:39.361Z,96849.19
2018-01-24T14:58:06.901Z,96848.65
2018-01-24T15:00:34.520Z,96847.87
2018-01-24T15:03:02.144Z,96846.44
2018-01-24T15:05:29.730Z,96847.14
2018-01-24T15:07:57.267Z,96846.63
2018-01-24T15:10:25.134Z,96851.14
2018-01-24T15:12:54.544Z,96850.89
2018-01-24T15:15:22.461Z,96852.01
2018-01-24T15:17:50.255Z,96849.28
2018-01-24T15:20:17.857Z,96856.41
2018-01-24T15:22:45.530Z,96850.87
2018-01-24T15:25:13.284Z,96851.54
2018-01-24T15:27:40.845Z,96850.63
2018-01-24T15:30:08.398Z,96851.75
2018-01-24T15:32:36.650Z,96861.94
2018-01-24T15:35:04.206Z,96859.72
2018-01-24T15:37:32.270Z,96851.45
2018-01-24T15:40:00.076Z,96848.72
2018-01-24T15:42:27.706Z,96852.30
2018-01-24T15:44:55.294Z,96850.72
2018-01-24T15:47:24.042Z,96845.09
2018-01-24T15:49:54.133Z,96853.59
2018-01-24T15:52:24.432Z,96853.28
2018-01-24T15:54:52.008Z,96857.28
2018-01-24T15:57:22.076Z,96850.27
2018-01-24T15:59:49.746Z,96854.75
2018-01-24T16:02:17.305Z,96851.89
2018-01-24T16:04:44.857Z,96854.42
2018-01-24T16:07:13.117Z,96853.50
2018-01-24T16:09:40.693Z,96858.33
2018-01-24T16:12:08.401Z,96854.86
2018-01-24T16:14:35.969Z,96851.33
2018-01-24T16:17:03.648Z,96851.06
2018-01-24T16:19:31.534Z,96852.73
2018-01-24T16:21:59.081Z,96851.68
2018-01-24T16:24:26.630Z,96848.57
2018-01-24T16:26:54.200Z,96850.25
2018-01-24T16:29:21.915Z,96855.53
2018-01-24T16:31:49.733Z,96848.50
2018-01-24T16:34:17.296Z,96854.53
2018-01-24T16:36:44.872Z,96847.98
2018-01-24T16:39:12.488Z,96854.59
2018-01-24T16:41:40.096Z,96847.69
2018-01-24T16:44:07.630Z,96845.20
2018-01-24T16:46:35.241Z,96846.55
2018-01-24T16:49:02.954Z,96852.03
2018-01-24T16:51:32.004Z,96848.31
2018-01-24T16:53:59.533Z,96842.05
2018-01-24T16:56:27.100Z,96840.01
2018-01-24T16:58:54.648Z,96841.60
2018-01-24T17:01:22.195Z,96835.39
2018-01-24T17:03:49.846Z,96836.80
2018-01-24T17:06:17.402Z,96828.84
2018-01-24T17:08:45.000Z,96825.13
2018-01-24T17:11:13.421Z,96835.75
2018-01-24T17:13:40.992Z,96829.91
2018-01-24T17:16:08.590Z,96827.42
2018-01-24T17:18:36.194Z,96825.94
2018-01-24T17:21:03.799Z,96826.24
2018-01-24T17:23:31.753Z,96827.03
2018-01-24T17:25:59.320Z,96823.38
2018-01-24T17:28:26.887Z,96816.39
2018-01-24T17:30:54.480Z,96819.35
2018-01-24T17:33:22.036Z,96812.05
2018-01-24T17:35:49.594Z,96816.50
2018-01-24T17:38:17.354Z,96814.58
2018-01-24T17:40:44.945Z,96811.80
2018-01-24T17:43:12.778Z,96811.17
2018-01-24T17:45:40.607Z,96809.73
2018-01-24T17:48:08.157Z,96803.16
2018-01-24T17:50:35.716Z,96803.38
2018-01-24T17:53:03.291Z,96797.63
2018-01-24T17:55:30.866Z,96798.48
2018-01-24T17:57:58.419Z,96796.58
2018-01-24T18:00:26.074Z,96793.86
2018-01-24T18:02:53.649Z,96788.99
2018-01-24T18:05:22.558Z,96779.79
2018-01-24T18:07:50.173Z,96774.48
2018-01-24T18:10:17.735Z,96774.00
2018-01-24T18:12:45.327Z,96777.75
2018-01-24T18:15:13.074Z,96769.83
2018-01-24T18:17:40.643Z,96767.50
2018-01-24T18:20:08.209Z,96770.14
2018-01-24T18:22:35.820Z,96764.20
2018-01-24T18:25:03.469Z,96764.61
2018-01-24T18:27:31.086Z,96765.81
2018-01-24T18:29:58.765Z,96762.52
2018-01-24T18:32:26.315Z,96753.56
2018-01-24T18:34:53.975Z,96749.16
2018-01-24T18:37:21.751Z,96736.86
2018-01-24T18:39:49.458Z,96745.31
2018-01-24T18:42:17.279Z,96740.91
2018-01-24T18:44:44.832Z,96733.44
2018-01-24T18:47:13.726Z,96731.91
2018-01-24T18:49:41.366Z,96727.55
2018-01-24T18:52:09.478Z,96730.25
2018-01-24T18:54:37.069Z,96721.27
2018-01-24T18:57:04.740Z,96720.37
2018-01-24T18:59:32.504Z,96723.62
2018-01-24T19:02:00.445Z,96714.13
2018-01-24T19:04:28.177Z,96716.00
2018-01-24T19:06:55.784Z,96709.74
2018-01-24T19:09:24.022Z,96704.84
2018-01-24T19:11:51.744Z,96702.52
2018-01-24T19:14:19.434Z,96698.85
2018-01-24T19:16:48.952Z,96699.63
2018-01-24T19:19:18.708Z,96698.01
2018-01-24T19:21:46.399Z,96699.02
2018-01-24T19:24:13.982Z,96688.44
2018-01-24T19:26:41.598Z,96688.75
2018-01-24T19:29:09.220Z,96687.35
2018-01-24T19:31:36.817Z,96684.65
2018-01-24T19:34:04.467Z,96685.66
2018-01-24T19:36:35.266Z,96682.48
2018-01-24T19:39:02.846Z,96673.03
2018-01-24T19:41:30.443Z,96668.23
2018-01-24T19:44:01.790Z,96671.23
2018-01-24T19:46:29.642Z,96663.23
2018-01-24T19:48:57.225Z,96672.74
2018-01-24T19:51:26.205Z,96667.20
2018-01-24T19:54:00.286Z,96659.86
2018-01-24T19:56:27.869Z,96661.80
2018-01-24T19:58:55.426Z,96662.75
2018-01-24T20:01:22.992Z,96665.95
2018-01-24T20:03:50.575Z,96657.17
2018-01-24T20:06:18.312Z,96653.17
2018-01-24T20:11:37.873Z,96644.88
2018-01-24T20:14:05.434Z,96639.52
2018-01-24T20:16:33.034Z,96638.88
2018-01-24T20:19:00.715Z,96634.78
2018-01-24T20:21:28.549Z,96629.42
2018-01-24T20:23:56.151Z,96625.76
2018-01-24T20:26:24.905Z,96621.78
2018-01-24T20:28:52.463Z,96619.04
2018-01-24T20:31:20.374Z,96619.98
2018-01-24T20:33:48.083Z,96615.23
2018-01-24T20:36:15.665Z,96617.34
2018-01-24T20:38:43.235Z,96613.55
2018-01-24T20:41:11.915Z,96610.50
2018-01-24T20:43:39.475Z,96601.94
2018-01-24T20:46:07.101Z,96600.33
2018-01-24T20:48:34.650Z,96596.96
2018-01-24T20:51:02.189Z,96600.25
2018-01-24T20:53:30.949Z,96593.47
2018-01-24T20:55:58.522Z,96589.91
2018-01-24T20:58:26.090Z,96581.79
2018-01-24T21:00:53.692Z,96580.48
2018-01-24T21:03:21.574Z,96573.80
2018-01-24T21:05:49.137Z,96568.51
2018-01-24T21:08:16.794Z,96572.92
2018-01-24T21:10:44.380Z,96566.97
2018-01-24T21:13:13.038Z,96572.02
2018-01-24T21:15:40.632Z,96569.42
2018-01-24T21:18:08.218Z,96566.72
2018-01-24T21:20:35.797Z,96568.65
2018-01-24T21:23:03.410Z,96565.03
2018-01-24T21:25:30.963Z,96555.01
2018-01-24T21:27:58.565Z,96562.47
2018-01-24T21:30:26.512Z,96557.52
2018-01-24T21:33:06.613Z,96555.85
2018-01-24T21:35:45.927Z,96552.07
2018-01-24T21:38:13.638Z,96556.73
2018-01-24T21:40:41.241Z,96556.20
2018-01-24T21:43:09.727Z,96560.59
2018-01-24T21:45:37.314Z,96560.77
2018-01-24T21:48:04.875Z,96564.61
2018-01-24T21:50:32.436Z,96550.67
2018-01-24T21:53:00.037Z,96557.20
2018-01-24T21:55:27.607Z,96559.48
2018-01-24T21:57:55.272Z,96552.39
2018-01-24T22:00:22.868Z,96549.45
2018-01-24T22:02:50.433Z,96558.65
2018-01-24T22:05:18.475Z,96550.97
2018-01-24T22:07:46.056Z,96550.87
2018-01-24T22:10:13.705Z,96555.02
2018-01-24T22:12:41.323Z,96550.73
2018-01-24T22:15:09.281Z,96547.72
2018-01-24T22:17:36.890Z,96549.37
2018-01-24T22:22:55.611Z,96548.69
2018-01-24T22:25:24.095Z,96543.58
2018-01-24T22:27:51.852Z,96544.48
2018-01-24T22:30:19.499Z,96541.55
2018-01-24T22:32:47.047Z,96540.34
2018-01-24T22:35:15.176Z,96545.38
2018-01-24T22:37:42.829Z,96541.13
2018-01-24T22:40:10.454Z,96538.91
2018-01-24T22:42:38.080Z,96538.53
2018-01-24T22:45:06.135Z,96538.25
2018-01-24T22:47:33.737Z,96529.11
2018-01-24T22:50:01.305Z,96530.30
2018-01-24T22:52:28.986Z,96530.34
2018-01-24T22:54:56.547Z,96537.27
2018-01-24T22:57:25.278Z,96533.77
2018-01-24T22:59:53.421Z,96530.59
2018-01-24T23:02:21.083Z,96542.30
2018-01-24T23:04:48.680Z,96545.12
2018-01-24T23:07:16.853Z,96539.33
2018-01-24T23:09:44.429Z,96540.65
2018-01-24T23:12:14.952Z,96533.98
2018-01-24T23:14:42.528Z,96540.33
2018-01-24T23:17:12.259Z,96542.05
2018-01-24T23:19:40.202Z,96540.73
2018-01-24T23:22:07.756Z,96542.52
2018-01-24T23:24:35.376Z,96540.89
2018-01-24T23:27:08.458Z,96537.14
2018-01-24T23:29:36.737Z,96532.56
2018-01-24T23:32:06.015Z,96533.48
2018-01-24T23:34:33.779Z,96534.48
2018-01-24T23:37:01.364Z,96527.32
2018-01-24T23:39:28.909Z,96527.64
2018-01-24T23:41:56.531Z,96522.17
2018-01-24T23:44:24.071Z,96524.01
2018-01-24T23:46:51.615Z,96525.41
2018-01-24T23:49:19.280Z,96515.20
2018-01-24T23:51:46.886Z,96517.13
2018-01-24T23:54:15.667Z,96514.66
2018-01-24T23:56:46.209Z,96518.14
2018-01-24T23:59:13.769Z,96516.20
